Skip Navigation

Christman Field Latest Observations

Switch to english unitsOther observation timesWeekly graphs

Date Time
MST
Temp
°C
RH
%
DewPt
°C
Wind
m/s
Dir
°
Gust
m/s
Dir
°
Press
hPa
Solar
W/m^2
Prec
mm
2020-09-20 22:30 16.1 46.7 4.7 1.4 29 1.8 29 0.00 0.2 0.00
2020-09-20 22:25 15.8 48.0 4.8 1.6 29 1.9 29 0.00 0.1 0.00
2020-09-20 22:20 15.2 47.8 4.2 1.3 18 2.2 353 0.00 0.1 0.00
2020-09-20 22:15 15.1 52.4 5.4 2.1 68 3.1 301 0.00 0.1 0.00
2020-09-20 22:10 15.8 50.3 5.5 3.0 305 3.4 310 0.00 0.1 0.00
2020-09-20 22:05 16.4 46.4 4.9 2.3 305 2.7 305 0.00 0.1 0.00
2020-09-20 22:00 16.8 45.4 4.9 2.1 292 2.4 285 0.00 0.0 0.00
2020-09-20 21:55 17.4 42.7 4.6 1.8 305 2.1 319 0.00 0.1 0.00
2020-09-20 21:50 16.9 42.2 4.0 2.0 319 2.3 312 0.00 0.0 0.00
2020-09-20 21:45 16.1 45.5 4.4 2.1 304 2.5 304 0.00 0.0 0.00
2020-09-20 21:40 16.1 47.9 5.0 2.5 306 3.1 313 0.00 0.0 0.00
2020-09-20 21:35 16.5 47.5 5.3 3.4 314 4.1 323 0.00 0.0 0.00
2020-09-20 21:30 16.4 46.3 4.8 4.1 324 4.4 320 0.00 0.0 0.00
2020-09-20 21:25 16.3 47.9 5.3 3.7 325 4.0 322 0.00 0.0 0.00
2020-09-20 21:20 16.5 48.9 5.7 3.4 318 3.8 316 0.00 0.0 0.00
2020-09-20 21:15 16.8 47.5 5.6 3.4 321 3.6 324 0.00 0.0 0.00
2020-09-20 21:10 17.3 46.1 5.6 4.0 334 4.4 336 0.00 0.0 0.00
2020-09-20 21:05 17.6 44.9 5.4 3.9 336 4.6 337 0.00 0.0 0.00
2020-09-20 21:00 17.4 44.4 5.1 4.2 334 5.1 334 0.00 0.0 0.00
2020-09-20 20:55 17.6 44.0 5.2 3.2 326 4.4 316 0.00 0.0 0.00
2020-09-20 20:50 17.9 43.6 5.4 2.4 334 3.1 331 0.00 0.0 0.00
2020-09-20 20:45 18.1 43.3 5.4 3.7 311 5.3 279 0.00 0.0 0.00
2020-09-20 20:40 17.0 46.5 5.4 4.5 295 5.0 307 0.00 0.0 0.00
2020-09-20 20:35 16.6 52.7 6.9 3.3 299 4.4 303 0.00 0.0 0.00
2020-09-20 20:30 16.3 50.9 6.1 0.9 351 2.7 7 0.00 0.0 0.00
2020-09-20 20:25 16.2 53.6 6.8 0.5 305 1.4 282 0.00 0.0 0.00
2020-09-20 20:20 16.2 53.7 6.8 2.0 31 3.1 9 0.00 0.0 0.00
2020-09-20 20:15 16.6 53.0 6.9 2.2 275 2.9 260 0.00 0.0 0.00
2020-09-20 20:10 16.9 53.8 7.5 3.0 260 3.6 267 0.00 0.0 0.00
2020-09-20 20:05 15.6 54.0 6.4 2.4 288 3.0 282 0.00 0.0 0.00